createdAt,value
2024-02-24T00:02:19.083Z,8.50
2024-02-24T00:05:09.447Z,4.93
2024-02-24T00:07:58.905Z,7.13
2024-02-24T00:10:48.961Z,8.27
2024-02-24T00:13:39.868Z,7.38
2024-02-24T00:16:29.385Z,10.63
2024-02-24T00:19:18.792Z,6.43
2024-02-24T00:22:08.124Z,6.82
2024-02-24T00:24:57.509Z,7.75
2024-02-24T00:27:46.902Z,7.97
2024-02-24T00:30:38.167Z,7.18
2024-02-24T00:33:27.646Z,5.15
2024-02-24T00:36:17.009Z,5.82
2024-02-24T00:39:07.057Z,8.18
2024-02-24T00:41:56.625Z,9.13
2024-02-24T00:44:46.085Z,9.15
2024-02-24T00:47:36.966Z,6.45
2024-02-24T00:50:30.441Z,7.30
2024-02-24T00:53:20.055Z,7.65
2024-02-24T00:56:09.731Z,6.32
2024-02-24T00:58:59.306Z,7.80
2024-02-24T01:01:49.542Z,9.93
2024-02-24T01:04:40.363Z,7.18
2024-02-24T01:07:29.850Z,8.18
2024-02-24T01:10:19.312Z,7.75
2024-02-24T01:13:08.721Z,4.72
2024-02-24T01:15:58.171Z,5.07
2024-02-24T01:18:47.931Z,7.53
2024-02-24T01:21:43.844Z,6.63
2024-02-24T01:24:33.272Z,8.18
2024-02-24T01:27:22.676Z,5.55
2024-02-24T01:30:13.057Z,5.80
2024-02-24T01:33:03.859Z,7.20
2024-02-24T01:35:53.542Z,6.10
2024-02-24T01:38:44.589Z,5.75
2024-02-24T01:41:34.222Z,8.13
2024-02-24T01:44:23.793Z,6.10
2024-02-24T01:47:13.448Z,5.20
2024-02-24T01:50:03.158Z,7.03
2024-02-24T01:52:52.932Z,5.72
2024-02-24T01:55:44.255Z,6.57
2024-02-24T01:58:36.828Z,6.10
2024-02-24T02:01:26.619Z,7.03
2024-02-24T02:04:18.946Z,9.88
2024-02-24T02:07:08.430Z,7.15
2024-02-24T02:09:58.867Z,8.00
2024-02-24T02:12:49.918Z,12.57
2024-02-24T02:15:39.457Z,5.97
2024-02-24T02:18:31.766Z,7.05
2024-02-24T02:21:23.250Z,7.07
2024-02-24T02:24:14.152Z,7.93
2024-02-24T02:27:07.881Z,9.60
2024-02-24T02:30:01.427Z,8.20
2024-02-24T02:32:51.127Z,8.98
2024-02-24T02:35:41.285Z,8.00
2024-02-24T02:38:30.618Z,19.77
2024-02-24T02:41:21.604Z,11.23
2024-02-24T02:44:11.678Z,9.15
2024-02-24T02:47:03.999Z,9.95
2024-02-24T02:49:55.098Z,11.88
2024-02-24T02:52:44.598Z,8.07
2024-02-24T02:55:34.046Z,6.82
2024-02-24T02:58:25.016Z,9.25
2024-02-24T03:01:14.456Z,7.47
2024-02-24T03:04:03.984Z,11.00
2024-02-24T03:06:53.645Z,7.03
2024-02-24T03:09:48.997Z,8.52
2024-02-24T03:12:38.686Z,8.18
2024-02-24T03:15:29.846Z,9.63
2024-02-24T03:18:19.386Z,8.15
2024-02-24T03:21:08.937Z,10.02
2024-02-24T03:23:58.709Z,8.40
2024-02-24T03:26:48.246Z,9.65
2024-02-24T03:29:37.674Z,8.93
2024-02-24T03:32:28.738Z,7.10
2024-02-24T03:35:18.292Z,6.93
2024-02-24T03:38:07.755Z,10.20
2024-02-24T03:40:57.087Z,12.20
2024-02-24T03:43:46.659Z,11.65
2024-02-24T03:46:36.159Z,12.13
2024-02-24T03:49:27.085Z,9.43
2024-02-24T03:52:16.496Z,9.45
2024-02-24T03:55:06.892Z,10.07
2024-02-24T03:57:56.353Z,9.07
2024-02-24T04:00:45.756Z,9.45
2024-02-24T04:03:35.150Z,12.50
2024-02-24T04:06:26.063Z,8.63
2024-02-24T04:09:15.498Z,11.65
2024-02-24T04:12:05.494Z,11.00
2024-02-24T04:14:55.832Z,10.18
2024-02-24T04:17:45.353Z,11.82
2024-02-24T04:20:34.914Z,9.48
2024-02-24T04:23:25.878Z,7.30
2024-02-24T04:26:15.201Z,8.60
2024-02-24T04:29:04.750Z,12.88
2024-02-24T04:31:54.543Z,9.30
2024-02-24T04:34:43.888Z,8.10
2024-02-24T04:37:33.396Z,6.90
2024-02-24T04:40:24.286Z,11.27
2024-02-24T04:43:13.678Z,14.18
2024-02-24T04:46:03.425Z,9.40
2024-02-24T04:48:52.862Z,13.27
2024-02-24T04:51:42.396Z,7.43
2024-02-24T04:54:31.792Z,9.45
2024-02-24T04:57:22.681Z,14.68
2024-02-24T05:00:13.722Z,10.55
2024-02-24T05:03:03.935Z,15.32
2024-02-24T05:05:53.501Z,9.55
2024-02-24T05:08:45.166Z,15.48
2024-02-24T05:11:35.046Z,11.85
2024-02-24T05:14:25.850Z,11.70
2024-02-24T05:17:17.420Z,11.43
2024-02-24T05:20:08.660Z,9.77
2024-02-24T05:22:58.129Z,13.43
2024-02-24T05:25:49.683Z,8.30
2024-02-24T05:28:39.307Z,13.77
2024-02-24T05:31:30.246Z,15.77
2024-02-24T05:34:19.611Z,12.00
2024-02-24T05:37:09.074Z,12.38
2024-02-24T05:39:59.802Z,15.70
2024-02-24T05:42:49.321Z,24.02
2024-02-24T05:45:39.771Z,24.77
2024-02-24T05:48:31.247Z,18.08
2024-02-24T05:51:22.678Z,17.48
2024-02-24T05:54:12.354Z,29.25
2024-02-24T05:57:03.403Z,23.63
2024-02-24T05:59:53.316Z,22.17
2024-02-24T06:02:42.698Z,24.88
2024-02-24T06:05:33.945Z,24.02
2024-02-24T06:08:23.412Z,28.38
2024-02-24T06:11:13.071Z,23.35
2024-02-24T06:14:02.511Z,24.48
2024-02-24T06:16:51.992Z,28.52
2024-02-24T06:19:41.799Z,24.55
2024-02-24T06:22:32.790Z,25.45
2024-02-24T06:25:22.166Z,22.95
2024-02-24T06:28:12.106Z,23.20
2024-02-24T06:31:01.677Z,21.23
2024-02-24T06:33:51.481Z,19.58
2024-02-24T06:36:40.993Z,18.63
2024-02-24T06:39:31.950Z,20.02
2024-02-24T06:42:21.446Z,20.23
2024-02-24T06:45:11.493Z,11.60
2024-02-24T06:48:00.952Z,20.05
2024-02-24T06:50:50.637Z,15.95
2024-02-24T06:53:40.076Z,17.55
2024-02-24T06:56:30.959Z,14.60
2024-02-24T06:59:20.458Z,13.93
2024-02-24T07:02:10.145Z,14.82
2024-02-24T07:04:59.615Z,9.85
2024-02-24T07:07:49.239Z,13.57
2024-02-24T07:10:38.710Z,15.25
2024-02-24T07:13:29.492Z,17.55
2024-02-24T07:16:19.328Z,17.27
2024-02-24T07:19:08.842Z,15.13
2024-02-24T07:21:58.490Z,15.48
2024-02-24T07:24:47.893Z,12.27
2024-02-24T07:27:37.372Z,14.30
2024-02-24T07:30:28.512Z,18.98
2024-02-24T07:33:18.028Z,16.52
2024-02-24T07:36:08.708Z,18.27
2024-02-24T07:38:58.237Z,20.63
2024-02-24T07:41:47.945Z,17.85
2024-02-24T07:44:37.521Z,22.42
2024-02-24T07:47:28.384Z,17.23
2024-02-24T07:50:18.272Z,166.55
2024-02-24T07:53:08.762Z,50.88
2024-02-24T07:55:58.225Z,71.95
2024-02-24T07:58:47.553Z,21.35
2024-02-24T08:01:36.918Z,25.77
2024-02-24T08:04:27.617Z,19.42
2024-02-24T08:07:17.254Z,17.38
2024-02-24T08:10:08.095Z,17.77
2024-02-24T08:12:57.490Z,20.63
2024-02-24T08:15:46.890Z,25.27
2024-02-24T08:18:36.858Z,26.42
2024-02-24T08:21:27.869Z,17.00
2024-02-24T08:24:18.096Z,29.25
2024-02-24T08:27:07.739Z,35.42
2024-02-24T08:29:57.123Z,24.20
2024-02-24T08:32:48.548Z,28.15
2024-02-24T08:35:39.103Z,21.52
2024-02-24T08:38:30.037Z,28.50
2024-02-24T08:41:19.375Z,16.55
2024-02-24T08:44:08.848Z,17.45
2024-02-24T08:46:58.264Z,29.65
2024-02-24T08:49:47.850Z,23.40
2024-02-24T08:52:46.150Z,20.35
2024-02-24T08:55:41.109Z,26.27
2024-02-24T08:58:30.565Z,24.35
2024-02-24T09:01:20.668Z,45.05
2024-02-24T09:04:10.042Z,42.47
2024-02-24T09:06:59.477Z,42.50
2024-02-24T09:09:48.962Z,37.33
2024-02-24T09:12:39.824Z,42.60
2024-02-24T09:15:32.212Z,41.83
2024-02-24T09:18:21.877Z,43.15
2024-02-24T09:21:13.250Z,43.83
2024-02-24T09:24:02.905Z,54.72
2024-02-24T09:26:53.487Z,52.08
2024-02-24T09:29:44.726Z,46.75
2024-02-24T09:32:34.119Z,47.05
2024-02-24T09:35:23.691Z,52.47
2024-02-24T09:38:13.139Z,51.65
2024-02-24T09:41:02.863Z,40.72
2024-02-24T09:43:53.522Z,45.58
2024-02-24T09:46:45.594Z,43.83
2024-02-24T09:49:35.203Z,50.75
2024-02-24T09:52:24.919Z,45.97
2024-02-24T09:55:14.318Z,46.70
2024-02-24T09:58:04.553Z,42.63
2024-02-24T10:00:54.228Z,43.22
2024-02-24T10:03:47.174Z,40.25
2024-02-24T10:06:36.743Z,46.58
2024-02-24T10:09:26.174Z,43.38
2024-02-24T10:12:15.575Z,40.50
2024-02-24T10:15:05.245Z,35.85
2024-02-24T10:18:00.092Z,37.55
2024-02-24T10:20:52.899Z,43.83
2024-02-24T10:23:42.372Z,39.75
2024-02-24T10:26:31.912Z,35.05
2024-02-24T10:29:22.552Z,32.72
2024-02-24T10:32:13.767Z,37.72
2024-02-24T10:35:05.444Z,34.65
2024-02-24T10:38:11.422Z,31.58
2024-02-24T10:41:09.283Z,32.97
2024-02-24T10:44:10.398Z,35.38
2024-02-24T10:47:08.289Z,31.02
2024-02-24T10:49:57.714Z,32.30
2024-02-24T10:52:48.055Z,37.92
2024-02-24T10:55:40.068Z,38.55
2024-02-24T10:58:29.591Z,33.95
2024-02-24T11:01:20.791Z,34.22
2024-02-24T11:04:11.677Z,30.33
2024-02-24T11:07:02.599Z,26.65
2024-02-24T11:09:56.423Z,23.23
2024-02-24T11:12:47.295Z,14.00
2024-02-24T11:15:36.593Z,14.80
2024-02-24T11:18:56.524Z,17.70
2024-02-24T11:22:03.651Z,18.45
2024-02-24T11:25:03.549Z,16.23
2024-02-24T11:27:59.613Z,13.55
2024-02-24T11:30:53.913Z,9.68
2024-02-24T11:33:43.555Z,11.68
2024-02-24T11:36:34.773Z,8.88
2024-02-24T11:39:25.128Z,7.97
2024-02-24T11:42:16.544Z,11.93
2024-02-24T11:45:09.571Z,10.48
2024-02-24T11:47:59.074Z,9.50
2024-02-24T11:50:49.298Z,9.55
2024-02-24T11:53:38.715Z,12.25
2024-02-24T11:56:28.222Z,8.68
2024-02-24T11:59:18.017Z,7.53
2024-02-24T12:02:08.934Z,8.10
2024-02-24T12:05:15.423Z,6.57
2024-02-24T12:08:07.829Z,7.50
2024-02-24T12:10:57.346Z,6.90
2024-02-24T12:13:48.108Z,16.00
2024-02-24T12:16:39.420Z,5.65
2024-02-24T12:19:31.965Z,7.38
2024-02-24T12:22:24.317Z,7.00
2024-02-24T12:25:17.075Z,6.75
2024-02-24T12:28:07.894Z,8.98
2024-02-24T12:30:57.328Z,8.95
2024-02-24T12:33:47.857Z,8.57
2024-02-24T12:36:38.828Z,9.15
2024-02-24T12:39:31.168Z,12.40
2024-02-24T12:42:21.229Z,10.48
2024-02-24T12:45:11.482Z,9.43
2024-02-24T12:48:00.831Z,12.20
2024-02-24T12:50:51.159Z,8.25
2024-02-24T12:53:42.846Z,7.00
2024-02-24T12:56:32.361Z,7.22
2024-02-24T12:59:23.470Z,11.57
2024-02-24T13:02:13.034Z,5.45
2024-02-24T13:05:02.558Z,6.63
2024-02-24T13:07:53.156Z,4.75
2024-02-24T13:10:44.284Z,3.97
2024-02-24T13:13:33.656Z,4.82
2024-02-24T13:16:23.036Z,7.15
2024-02-24T13:19:12.453Z,7.10
2024-02-24T13:22:01.935Z,4.55
2024-02-24T13:24:51.396Z,8.82
2024-02-24T13:27:42.231Z,7.57
2024-02-24T13:30:31.467Z,8.10
2024-02-24T13:33:21.179Z,9.32
2024-02-24T13:36:11.072Z,11.60
2024-02-24T13:39:00.716Z,12.00
2024-02-24T13:41:52.668Z,14.75
2024-02-24T13:44:43.701Z,12.20
2024-02-24T13:47:33.122Z,14.15
2024-02-24T13:50:23.982Z,14.93
2024-02-24T13:53:13.633Z,12.70
2024-02-24T13:56:05.170Z,20.30
2024-02-24T13:58:55.075Z,25.20
2024-02-24T14:01:45.769Z,15.80
2024-02-24T14:04:35.129Z,12.63
2024-02-24T14:07:25.212Z,12.32
2024-02-24T14:10:14.473Z,13.77
2024-02-24T14:13:04.030Z,18.35
2024-02-24T14:15:53.442Z,16.42
2024-02-24T14:18:44.356Z,17.27
2024-02-24T14:21:33.763Z,23.05
2024-02-24T14:24:23.161Z,19.40
2024-02-24T14:27:12.609Z,18.55
2024-02-24T14:30:02.055Z,21.35
2024-02-24T14:32:52.191Z,19.10
2024-02-24T14:35:43.374Z,26.17
2024-02-24T14:38:33.006Z,21.77
2024-02-24T14:41:22.903Z,22.70
2024-02-24T14:44:12.533Z,23.17
2024-02-24T14:47:06.399Z,24.63
2024-02-24T14:49:55.961Z,21.50
2024-02-24T14:52:47.046Z,19.40
2024-02-24T14:55:36.416Z,14.73
2024-02-24T14:58:25.776Z,14.98
2024-02-24T15:01:15.944Z,23.38
2024-02-24T15:04:06.193Z,18.38
2024-02-24T15:06:55.982Z,11.35
2024-02-24T15:09:48.925Z,12.95
2024-02-24T15:12:38.486Z,18.40
2024-02-24T15:15:27.776Z,13.13
2024-02-24T15:18:17.439Z,12.13
2024-02-24T15:21:07.835Z,13.90
2024-02-24T15:23:57.280Z,11.93
2024-02-24T15:26:48.398Z,17.23
2024-02-24T15:29:37.991Z,11.85
2024-02-24T15:32:27.638Z,15.38
2024-02-24T15:35:17.617Z,17.98
2024-02-24T15:38:07.756Z,10.30
2024-02-24T15:40:57.139Z,13.77
2024-02-24T15:43:48.222Z,12.27
2024-02-24T15:46:37.680Z,12.68
2024-02-24T15:49:27.004Z,10.65
2024-02-24T15:52:16.758Z,12.65
2024-02-24T15:55:07.085Z,12.27
2024-02-24T15:57:56.631Z,15.07
2024-02-24T16:00:47.875Z,13.32
2024-02-24T16:03:37.411Z,10.27
2024-02-24T16:06:27.434Z,12.60
2024-02-24T16:09:17.478Z,13.32
2024-02-24T16:12:07.973Z,11.38
2024-02-24T16:14:57.394Z,12.13
2024-02-24T16:17:49.194Z,14.02
2024-02-24T16:20:38.625Z,12.45
2024-02-24T16:23:28.086Z,16.60
2024-02-24T16:26:17.534Z,15.02
2024-02-24T16:29:07.056Z,9.82
2024-02-24T16:31:56.617Z,11.23
2024-02-24T16:34:47.903Z,8.60
2024-02-24T16:37:37.415Z,10.02
2024-02-24T16:40:26.805Z,9.02
2024-02-24T16:43:16.217Z,9.32
2024-02-24T16:46:05.995Z,10.85
2024-02-24T16:48:55.764Z,13.07
2024-02-24T16:51:46.990Z,15.18
2024-02-24T16:54:39.118Z,11.02
2024-02-24T16:57:28.948Z,13.02
2024-02-24T17:00:19.346Z,17.55
2024-02-24T17:03:08.613Z,16.98
2024-02-24T17:05:58.680Z,17.73
2024-02-24T17:08:49.866Z,15.90
2024-02-24T17:11:39.373Z,10.77
2024-02-24T17:14:28.846Z,9.57
2024-02-24T17:17:19.473Z,13.70
2024-02-24T17:20:10.502Z,13.50
2024-02-24T17:23:03.150Z,11.38
2024-02-24T17:25:53.869Z,12.95
2024-02-24T17:28:43.349Z,14.35
2024-02-24T17:31:32.648Z,13.52
2024-02-24T17:34:22.561Z,14.43
2024-02-24T17:37:12.041Z,16.92
2024-02-24T17:40:01.449Z,14.55
2024-02-24T17:42:52.244Z,28.27
2024-02-24T17:45:41.686Z,37.13
2024-02-24T17:48:31.408Z,27.20
2024-02-24T17:51:20.911Z,18.60
2024-02-24T17:54:10.378Z,18.77
2024-02-24T17:56:59.824Z,17.35
2024-02-24T17:59:50.761Z,19.45
2024-02-24T18:02:41.156Z,29.17
2024-02-24T18:05:30.613Z,31.00
2024-02-24T18:08:20.126Z,36.25
2024-02-24T18:11:10.904Z,42.80
2024-02-24T18:14:00.583Z,40.05
2024-02-24T18:16:51.354Z,40.30
2024-02-24T18:19:40.748Z,45.05
2024-02-24T18:22:30.085Z,46.20
2024-02-24T18:25:19.642Z,41.67
2024-02-24T18:28:09.095Z,33.03
2024-02-24T18:30:59.660Z,39.85
2024-02-24T18:33:50.739Z,32.63
2024-02-24T18:36:40.469Z,41.88
2024-02-24T18:39:30.353Z,34.78
2024-02-24T18:42:23.650Z,31.55
2024-02-24T18:45:13.796Z,38.63
2024-02-24T18:48:04.054Z,38.75
2024-02-24T18:50:55.575Z,37.58
2024-02-24T18:53:48.079Z,46.55
2024-02-24T18:56:37.593Z,47.45
2024-02-24T18:59:27.058Z,54.80
2024-02-24T19:02:17.438Z,57.63
2024-02-24T19:05:07.501Z,58.67
2024-02-24T19:07:58.347Z,98.10
2024-02-24T19:10:47.869Z,131.27
2024-02-24T19:13:37.295Z,94.50
2024-02-24T19:16:26.931Z,85.68
2024-02-24T19:19:16.673Z,72.30
2024-02-24T19:22:06.499Z,71.40
2024-02-24T19:24:57.279Z,70.82
2024-02-24T19:27:47.303Z,76.35
2024-02-24T19:30:37.004Z,85.13
2024-02-24T19:33:26.609Z,92.43
2024-02-24T19:36:16.108Z,72.47
2024-02-24T19:39:15.604Z,70.78
2024-02-24T19:42:10.587Z,82.95
2024-02-24T19:45:01.009Z,77.78
2024-02-24T19:47:50.610Z,66.95
2024-02-24T19:50:40.459Z,82.18
2024-02-24T19:53:29.831Z,107.05
2024-02-24T19:56:19.262Z,155.38
2024-02-24T19:59:10.464Z,168.18
2024-02-24T20:02:00.787Z,241.55
2024-02-24T20:04:50.054Z,167.90
2024-02-24T20:07:39.585Z,104.20
2024-02-24T20:10:29.381Z,89.88
2024-02-24T20:13:18.669Z,88.57
2024-02-24T20:16:09.793Z,116.72
2024-02-24T20:18:59.243Z,128.25
2024-02-24T20:21:48.734Z,87.47
2024-02-24T20:24:38.066Z,98.97
2024-02-24T20:27:28.193Z,98.43
2024-02-24T20:30:20.801Z,88.03
2024-02-24T20:33:12.135Z,78.68
2024-02-24T20:36:01.619Z,72.43
2024-02-24T20:38:52.339Z,90.80
2024-02-24T20:41:42.487Z,91.45
2024-02-24T20:44:31.898Z,88.25
2024-02-24T20:47:22.821Z,66.10
2024-02-24T20:50:13.881Z,61.13
2024-02-24T20:53:05.285Z,57.60
2024-02-24T20:55:54.673Z,63.25
2024-02-24T20:58:44.090Z,56.70
2024-02-24T21:01:33.401Z,59.88
2024-02-24T21:04:22.917Z,67.85
2024-02-24T21:07:14.486Z,82.15
2024-02-24T21:10:03.933Z,77.82
2024-02-24T21:12:53.567Z,73.53
2024-02-24T21:15:42.909Z,92.95
2024-02-24T21:18:32.903Z,139.05
2024-02-24T21:21:23.271Z,133.95
2024-02-24T21:24:14.113Z,99.43
2024-02-24T21:27:03.677Z,93.28
2024-02-24T21:29:53.788Z,82.38
2024-02-24T21:32:43.504Z,68.18
2024-02-24T21:35:33.244Z,56.95
2024-02-24T21:38:23.057Z,53.67
2024-02-24T21:41:19.016Z,48.70
2024-02-24T21:44:09.020Z,39.80
2024-02-24T21:46:58.517Z,37.83
2024-02-24T21:49:47.872Z,32.03
2024-02-24T21:52:37.174Z,28.27
2024-02-24T21:55:27.032Z,28.55
2024-02-24T21:58:18.525Z,28.38
2024-02-24T22:01:07.888Z,33.42
2024-02-24T22:03:57.472Z,37.92
2024-02-24T22:06:47.473Z,35.72
2024-02-24T22:09:37.466Z,30.88
2024-02-24T22:12:27.142Z,32.88
2024-02-24T22:15:19.762Z,31.40
2024-02-24T22:18:09.723Z,29.10
2024-02-24T22:20:59.449Z,28.85
2024-02-24T22:23:51.678Z,28.90
2024-02-24T22:26:44.351Z,28.48
2024-02-24T22:29:34.008Z,26.13
2024-02-24T22:32:25.096Z,31.65
2024-02-24T22:35:15.563Z,28.27
2024-02-24T22:38:05.477Z,34.92
2024-02-24T22:40:54.874Z,37.15
2024-02-24T22:43:44.510Z,35.30
2024-02-24T22:46:34.360Z,35.78
2024-02-24T22:49:25.352Z,34.55
2024-02-24T22:52:17.847Z,38.88
2024-02-24T22:55:09.803Z,38.90
2024-02-24T22:57:59.468Z,37.25
2024-02-24T23:00:48.964Z,39.95
2024-02-24T23:03:38.415Z,37.60
2024-02-24T23:06:29.313Z,36.58
2024-02-24T23:09:19.104Z,40.53
2024-02-24T23:12:09.298Z,37.35
2024-02-24T23:14:58.924Z,37.40
2024-02-24T23:17:48.517Z,33.65
2024-02-24T23:20:37.810Z,37.47
2024-02-24T23:23:28.648Z,44.22
2024-02-24T23:26:18.114Z,40.10
2024-02-24T23:29:07.478Z,33.92
2024-02-24T23:31:56.864Z,36.90
2024-02-24T23:34:47.128Z,30.13
2024-02-24T23:37:36.612Z,37.25
2024-02-24T23:40:27.677Z,36.25
2024-02-24T23:43:17.001Z,30.90
2024-02-24T23:46:06.886Z,32.58
2024-02-24T23:48:56.623Z,24.80
2024-02-24T23:51:46.144Z,27.08
2024-02-24T23:54:35.676Z,28.52
2024-02-24T23:57:30.185Z,27.83
